createdAt,value
2018-07-16T00:04:46.457Z,101196.81
2018-07-16T00:09:39.101Z,101198.22
2018-07-16T00:14:31.738Z,101200.45
2018-07-16T00:19:24.230Z,101197.77
2018-07-16T00:24:16.787Z,101198.06
2018-07-16T00:29:09.429Z,101191.56
2018-07-16T00:34:02.037Z,101187.25
2018-07-16T00:38:54.593Z,101180.44
2018-07-16T00:43:47.214Z,101175.30
2018-07-16T00:48:39.832Z,101172.57
2018-07-16T00:53:32.458Z,101170.72
2018-07-16T00:58:25.008Z,101175.92
2018-07-16T01:03:17.684Z,101175.38
2018-07-16T01:08:10.242Z,101169.42
2018-07-16T01:13:02.873Z,101163.70
2018-07-16T01:17:55.503Z,101166.16
2018-07-16T01:22:48.122Z,101167.53
2018-07-16T01:27:40.907Z,101169.23
2018-07-16T01:32:33.523Z,101165.16
2018-07-16T01:37:26.152Z,101165.75
2018-07-16T01:42:18.734Z,101168.48
2018-07-16T01:47:11.500Z,101176.42
2018-07-16T01:52:04.086Z,101179.43
2018-07-16T01:56:56.723Z,101172.09
2018-07-16T02:01:49.309Z,101177.05
2018-07-16T02:06:41.864Z,101170.23
2018-07-16T02:11:34.458Z,101170.54
2018-07-16T02:16:26.974Z,101166.75
2018-07-16T02:21:19.549Z,101161.87
2018-07-16T02:26:12.098Z,101164.05
2018-07-16T02:31:04.698Z,101165.69
2018-07-16T02:35:57.313Z,101156.70
2018-07-16T02:40:49.923Z,101161.61
2018-07-16T02:45:42.499Z,101160.54
2018-07-16T02:50:35.038Z,101159.45
2018-07-16T02:55:27.636Z,101166.27
2018-07-16T03:00:20.218Z,101165.19
2018-07-16T03:05:17.996Z,101167.66
2018-07-16T03:10:10.760Z,101160.56
2018-07-16T03:15:04.027Z,101161.64
2018-07-16T03:19:56.631Z,101170.64
2018-07-16T03:24:49.288Z,101173.66
2018-07-16T03:29:41.899Z,101167.38
2018-07-16T03:34:34.711Z,101169.00
2018-07-16T03:39:27.356Z,101160.84
2018-07-16T03:44:20.063Z,101165.75
2018-07-16T03:49:12.629Z,101167.38
2018-07-16T03:54:05.299Z,101172.00
2018-07-16T03:58:57.935Z,101159.45
2018-07-16T04:03:50.567Z,101160.01
2018-07-16T04:08:43.287Z,101168.45
2018-07-16T04:13:35.844Z,101167.09
2018-07-16T04:18:28.524Z,101166.27
2018-07-16T04:23:21.102Z,101157.56
2018-07-16T04:28:13.692Z,101153.20
2018-07-16T04:33:06.438Z,101161.65
2018-07-16T04:37:59.062Z,101159.75
2018-07-16T04:42:52.007Z,101160.00
2018-07-16T04:47:44.587Z,101158.38
2018-07-16T04:52:37.182Z,101158.09
2018-07-16T04:57:29.738Z,101152.64
2018-07-16T05:02:22.287Z,101151.52
2018-07-16T05:07:14.985Z,101151.53
2018-07-16T05:12:07.691Z,101151.53
2018-07-16T05:17:00.324Z,101146.32
2018-07-16T05:21:52.911Z,101148.52
2018-07-16T05:26:45.575Z,101142.51
2018-07-16T05:31:38.206Z,101137.02
2018-07-16T05:36:30.732Z,101134.02
2018-07-16T05:41:23.297Z,101137.80
2018-07-16T05:46:16.238Z,101132.88
2018-07-16T05:51:08.803Z,101139.13
2018-07-16T05:56:01.380Z,101136.12
2018-07-16T06:00:53.994Z,101127.88
2018-07-16T06:05:46.611Z,101129.52
2018-07-16T06:10:39.191Z,101124.01
2018-07-16T06:15:31.843Z,101123.98
2018-07-16T06:20:24.442Z,101126.95
2018-07-16T06:25:17.111Z,101128.53
2018-07-16T06:30:09.906Z,101128.78
2018-07-16T06:35:02.529Z,101132.27
2018-07-16T06:39:55.177Z,101124.84
2018-07-16T06:44:47.750Z,101129.70
2018-07-16T06:49:40.415Z,101126.91
2018-07-16T06:54:33.027Z,101125.78
2018-07-16T06:59:25.665Z,101123.25
2018-07-16T07:04:18.196Z,101120.99
2018-07-16T07:09:10.810Z,101110.28
2018-07-16T07:14:03.406Z,101108.29
2018-07-16T07:18:56.251Z,101103.28
2018-07-16T07:23:49.270Z,101108.01
2018-07-16T07:28:41.901Z,101103.81
2018-07-16T07:33:34.602Z,101102.66
2018-07-16T07:38:27.145Z,101098.20
2018-07-16T07:43:19.734Z,101087.44
2018-07-16T07:48:12.407Z,101097.35
2018-07-16T07:53:05.243Z,101104.23
2018-07-16T07:57:57.934Z,101100.54
2018-07-16T08:02:50.548Z,101098.66
2018-07-16T08:07:43.129Z,101105.80
2018-07-16T08:12:35.742Z,101100.80
2018-07-16T08:17:28.371Z,101089.80
2018-07-16T08:22:21.165Z,101090.69
2018-07-16T08:27:13.940Z,101080.77
2018-07-16T08:32:07.484Z,101087.98
2018-07-16T08:37:00.103Z,101077.98
2018-07-16T08:41:52.662Z,101081.55
2018-07-16T08:46:45.287Z,101084.05
2018-07-16T08:51:37.938Z,101076.20
2018-07-16T08:56:30.511Z,101074.20
2018-07-16T09:01:23.143Z,101071.77
2018-07-16T09:06:15.754Z,101068.37
2018-07-16T09:11:08.446Z,101070.16
2018-07-16T09:16:01.104Z,101080.50
2018-07-16T09:20:53.678Z,101077.05
2018-07-16T09:25:46.260Z,101071.47
2018-07-16T09:30:38.825Z,101066.58
2018-07-16T09:35:31.431Z,101068.66
2018-07-16T09:40:24.061Z,101069.80
2018-07-16T09:45:16.761Z,101054.22
2018-07-16T09:50:09.386Z,101051.50
2018-07-16T09:55:01.950Z,101052.56
2018-07-16T09:59:54.535Z,101047.88
2018-07-16T10:04:47.223Z,101036.33
2018-07-16T10:09:39.854Z,101033.36
2018-07-16T10:14:33.499Z,101033.87
2018-07-16T10:19:26.133Z,101030.24
2018-07-16T10:24:18.725Z,101023.33
2018-07-16T10:29:11.323Z,101024.95
2018-07-16T10:34:03.866Z,101021.02
2018-07-16T10:38:56.522Z,101017.81
2018-07-16T10:43:49.415Z,101006.02
2018-07-16T10:48:41.998Z,101013.99
2018-07-16T10:53:34.570Z,101010.05
2018-07-16T10:58:27.153Z,101009.20
2018-07-16T11:03:19.760Z,100989.63
2018-07-16T11:08:12.335Z,100994.55
2018-07-16T11:13:04.943Z,100980.27
2018-07-16T11:17:57.636Z,100974.45
2018-07-16T11:22:50.247Z,100971.94
2018-07-16T11:27:42.804Z,100970.14
2018-07-16T11:32:35.437Z,100961.03
2018-07-16T11:37:28.064Z,100966.17
2018-07-16T11:42:20.855Z,100961.30
2018-07-16T11:47:13.562Z,100966.20
2018-07-16T11:52:06.243Z,100955.37
2018-07-16T11:56:59.047Z,100946.56
2018-07-16T12:01:51.789Z,100946.53
2018-07-16T12:06:44.334Z,100932.10
2018-07-16T12:11:36.920Z,100934.16
2018-07-16T12:16:29.653Z,100926.04
2018-07-16T12:21:22.327Z,100926.65
2018-07-16T12:26:14.918Z,100925.42
2018-07-16T12:31:07.516Z,100907.97
2018-07-16T12:36:00.124Z,100909.53
2018-07-16T12:40:52.684Z,100897.70
2018-07-16T12:45:45.233Z,100880.18
2018-07-16T12:50:38.159Z,100881.77
2018-07-16T12:55:30.910Z,100869.93
2018-07-16T13:00:23.570Z,100875.50
2018-07-16T13:05:16.227Z,100867.98
2018-07-16T13:10:08.891Z,100864.77
2018-07-16T13:15:01.732Z,100848.62
2018-07-16T13:19:54.371Z,100841.41
2018-07-16T13:24:47.926Z,100847.45
2018-07-16T13:29:40.514Z,100838.56
2018-07-16T13:34:33.113Z,100833.92
2018-07-16T13:39:25.735Z,100823.13
2018-07-16T13:44:18.324Z,100827.05
2018-07-16T13:49:10.915Z,100816.50
2018-07-16T13:54:03.462Z,100815.55
2018-07-16T13:58:56.382Z,100794.95
2018-07-16T14:03:48.952Z,100794.00
2018-07-16T14:08:41.641Z,100786.44
2018-07-16T14:13:34.284Z,100781.16
2018-07-16T14:18:26.941Z,100781.34
2018-07-16T14:23:19.664Z,100779.55
2018-07-16T14:28:12.166Z,100772.73
2018-07-16T15:50:37.612Z,100737.80
2018-07-16T16:57:05.393Z,100722.02
2018-07-16T17:01:58.095Z,100717.58
2018-07-16T17:06:50.901Z,100715.19
2018-07-16T17:11:43.532Z,100714.61
2018-07-16T17:16:36.192Z,100707.30
2018-07-16T17:21:28.775Z,100700.22
2018-07-16T17:26:21.417Z,100702.24
2018-07-16T17:31:14.099Z,100704.38
2018-07-16T17:36:06.669Z,100699.23
2018-07-16T17:40:59.424Z,100699.09
2018-07-16T17:45:52.432Z,100703.66
2018-07-16T17:50:44.979Z,100698.15
2018-07-16T17:55:37.567Z,100699.39
2018-07-16T18:00:30.185Z,100698.48
2018-07-16T18:05:22.850Z,100705.50
2018-07-16T18:10:15.414Z,100708.13
2018-07-16T18:15:08.023Z,100716.48
2018-07-16T18:20:00.570Z,100723.48
2018-07-16T18:24:53.207Z,100727.68
2018-07-16T18:29:45.938Z,100726.86
2018-07-16T18:34:38.514Z,100721.81
2018-07-16T18:39:31.143Z,100728.84
2018-07-16T18:44:23.757Z,100723.55
2018-07-16T18:49:16.378Z,100735.48
2018-07-16T18:54:08.890Z,100730.42
2018-07-16T18:59:01.449Z,100742.10
2018-07-16T19:03:53.994Z,100752.61
2018-07-16T19:08:46.538Z,100752.63
2018-07-16T19:13:39.339Z,100749.51
2018-07-16T19:18:31.922Z,100753.67
2018-07-16T19:23:24.474Z,100768.87
2018-07-16T19:28:17.283Z,100787.53
2018-07-16T19:33:09.887Z,100796.75
2018-07-16T19:38:02.480Z,100797.88
2018-07-16T19:42:55.158Z,100790.66
2018-07-16T19:47:47.780Z,100796.10
2018-07-16T19:52:40.431Z,100798.58
2018-07-16T19:57:33.270Z,100799.12
2018-07-16T20:02:25.779Z,100801.12
2018-07-16T20:07:18.294Z,100798.67
2018-07-16T20:12:33.574Z,100792.08
2018-07-16T20:17:26.162Z,100787.43
2018-07-16T20:22:18.737Z,100780.44
2018-07-16T20:27:11.344Z,100782.70
2018-07-16T20:32:04.033Z,100775.61
2018-07-16T20:36:56.721Z,100773.03
2018-07-16T20:41:49.387Z,100776.66
2018-07-16T20:46:41.942Z,100775.25
2018-07-16T20:51:34.540Z,100769.52
2018-07-16T20:56:27.243Z,100769.06
2018-07-16T21:01:19.736Z,100770.63
2018-07-16T21:06:12.379Z,100768.74
2018-07-16T21:11:05.451Z,100769.22
2018-07-16T21:15:58.083Z,100772.14
2018-07-16T21:20:50.589Z,100779.87
2018-07-16T21:25:43.159Z,100782.91
2018-07-16T21:30:35.769Z,100784.20
2018-07-16T21:35:28.544Z,100790.84
2018-07-16T21:40:21.173Z,100802.45
2018-07-16T21:45:13.851Z,100801.88
2018-07-16T21:50:06.611Z,100801.63
2018-07-16T21:54:59.149Z,100797.12
2018-07-16T21:59:51.682Z,100793.13
2018-07-16T22:04:44.274Z,100802.27
2018-07-16T22:09:36.904Z,100803.75
2018-07-16T22:14:29.559Z,100802.11
2018-07-16T22:19:22.186Z,100803.80
2018-07-16T22:24:14.701Z,100797.52
2018-07-16T22:29:07.287Z,100789.65
2018-07-16T22:33:59.902Z,100797.98
2018-07-16T22:38:52.431Z,100793.98
2018-07-16T22:43:44.962Z,100800.05
2018-07-16T22:48:37.510Z,100805.01
2018-07-16T22:53:30.116Z,100799.22
2018-07-16T22:58:22.698Z,100798.66
2018-07-16T23:03:15.282Z,100800.41
2018-07-16T23:08:07.901Z,100805.30
2018-07-16T23:13:00.747Z,100804.55
2018-07-16T23:17:53.330Z,100795.19
2018-07-16T23:22:51.226Z,100797.58
2018-07-16T23:27:43.879Z,100797.78
2018-07-16T23:32:36.443Z,100797.08
2018-07-16T23:37:29.099Z,100787.16
2018-07-16T23:42:21.641Z,100782.53
2018-07-16T23:47:14.267Z,100785.70
2018-07-16T23:52:06.912Z,100783.56
2018-07-16T23:56:59.469Z,100779.56
